createdAt,value
2023-02-11T00:00:53.684Z,12.65
2023-02-11T00:03:20.204Z,11.68
2023-02-11T00:05:46.625Z,7.77
2023-02-11T00:08:16.976Z,18.75
2023-02-11T00:10:46.338Z,10.98
2023-02-11T00:13:12.822Z,8.68
2023-02-11T00:15:39.369Z,8.65
2023-02-11T00:18:05.778Z,18.87
2023-02-11T00:20:32.175Z,10.07
2023-02-11T00:22:58.622Z,8.95
2023-02-11T00:25:25.035Z,12.43
2023-02-11T00:27:51.441Z,11.85
2023-02-11T00:30:17.868Z,13.77
2023-02-11T00:32:44.328Z,9.95
2023-02-11T00:35:10.696Z,9.20
2023-02-11T00:37:37.148Z,14.02
2023-02-11T00:40:06.720Z,10.98
2023-02-11T00:42:35.535Z,9.43
2023-02-11T00:45:02.292Z,8.40
2023-02-11T00:47:28.680Z,13.88
2023-02-11T00:49:55.187Z,11.55
2023-02-11T00:52:21.601Z,15.55
2023-02-11T00:54:47.976Z,10.50
2023-02-11T00:57:14.733Z,10.40
2023-02-11T00:59:41.068Z,8.65
2023-02-11T01:02:07.438Z,10.23
2023-02-11T01:04:33.898Z,13.88
2023-02-11T01:07:00.414Z,14.87
2023-02-11T01:09:26.806Z,10.90
2023-02-11T01:11:53.206Z,11.57
2023-02-11T01:14:19.620Z,6.60
2023-02-11T01:16:46.052Z,10.73
2023-02-11T01:19:12.550Z,14.47
2023-02-11T01:21:39.099Z,9.70
2023-02-11T01:24:05.999Z,9.70
2023-02-11T01:26:32.478Z,15.38
2023-02-11T01:29:00.889Z,12.13
2023-02-11T01:31:27.371Z,10.57
2023-02-11T01:33:53.802Z,10.63
2023-02-11T01:36:20.190Z,10.18
2023-02-11T01:38:46.690Z,15.05
2023-02-11T01:41:14.939Z,12.23
2023-02-11T01:43:47.767Z,11.37
2023-02-11T01:46:26.386Z,9.57
2023-02-11T01:49:02.489Z,10.80
2023-02-11T01:51:40.057Z,12.15
2023-02-11T01:54:27.370Z,10.95
2023-02-11T01:57:16.259Z,7.90
2023-02-11T01:59:59.642Z,9.52
2023-02-11T02:02:48.264Z,11.68
2023-02-11T02:05:34.922Z,13.30
2023-02-11T02:08:17.612Z,12.00
2023-02-11T02:10:46.866Z,11.10
2023-02-11T02:13:14.626Z,10.18
2023-02-11T02:16:15.306Z,5.70
2023-02-11T02:19:00.373Z,9.52
2023-02-11T02:21:45.470Z,10.90
2023-02-11T02:24:17.853Z,8.00
2023-02-11T02:26:53.301Z,14.88
2023-02-11T02:30:15.809Z,9.48
2023-02-11T02:32:51.207Z,7.35
2023-02-11T02:36:08.840Z,11.55
2023-02-11T02:38:46.743Z,11.60
2023-02-11T02:41:17.106Z,13.85
2023-02-11T02:43:47.710Z,10.23
2023-02-11T02:46:17.430Z,12.32
2023-02-11T02:48:45.054Z,15.80
2023-02-11T02:51:39.314Z,13.37
2023-02-11T02:54:30.804Z,10.07
2023-02-11T02:57:06.313Z,11.85
2023-02-11T02:59:58.934Z,12.48
2023-02-11T03:02:59.428Z,8.35
2023-02-11T03:05:31.831Z,7.10
2023-02-11T03:08:14.628Z,19.50
2023-02-11T03:10:50.685Z,13.43
2023-02-11T03:13:20.014Z,7.63
2023-02-11T03:15:51.031Z,12.23
2023-02-11T03:18:21.509Z,13.57
2023-02-11T03:20:53.226Z,8.82
2023-02-11T03:23:30.892Z,8.57
2023-02-11T03:26:16.203Z,12.40
2023-02-11T03:28:54.852Z,9.38
2023-02-11T03:31:43.615Z,10.37
2023-02-11T03:34:14.599Z,10.05
2023-02-11T03:36:57.058Z,11.32
2023-02-11T03:39:30.590Z,10.75
2023-02-11T03:42:00.345Z,13.82
2023-02-11T03:44:31.225Z,10.87
2023-02-11T03:46:59.049Z,9.63
2023-02-11T03:49:27.753Z,15.07
2023-02-11T03:51:55.789Z,14.60
2023-02-11T03:54:30.906Z,9.35
2023-02-11T03:57:00.505Z,9.13
2023-02-11T03:59:27.299Z,13.80
2023-02-11T04:01:54.489Z,15.80
2023-02-11T04:04:20.967Z,15.45
2023-02-11T04:06:47.415Z,12.43
2023-02-11T04:09:13.808Z,18.97
2023-02-11T04:11:40.154Z,10.52
2023-02-11T04:14:06.523Z,16.42
2023-02-11T04:16:33.035Z,13.90
2023-02-11T04:18:59.529Z,15.32
2023-02-11T04:21:25.928Z,12.43
2023-02-11T04:23:52.364Z,14.50
2023-02-11T04:26:18.713Z,11.40
2023-02-11T04:28:45.051Z,14.25
2023-02-11T04:31:12.054Z,10.30
2023-02-11T04:33:38.474Z,17.20
2023-02-11T04:36:05.034Z,20.13
2023-02-11T04:38:31.879Z,13.32
2023-02-11T04:41:00.429Z,18.33
2023-02-11T04:43:26.856Z,16.83
2023-02-11T04:45:57.546Z,20.33
2023-02-11T04:48:24.553Z,16.20
2023-02-11T04:50:50.960Z,19.73
2023-02-11T04:53:17.437Z,16.50
2023-02-11T04:55:43.872Z,14.52
2023-02-11T04:58:10.232Z,18.33
2023-02-11T05:00:36.711Z,18.90
2023-02-11T05:03:03.099Z,15.50
2023-02-11T05:05:29.543Z,21.77
2023-02-11T05:07:55.901Z,18.73
2023-02-11T05:10:22.312Z,17.03
2023-02-11T05:12:49.634Z,20.92
2023-02-11T05:15:16.188Z,20.45
2023-02-11T05:17:42.590Z,20.88
2023-02-11T05:20:09.727Z,18.33
2023-02-11T05:22:36.064Z,19.47
2023-02-11T05:25:02.522Z,17.42
2023-02-11T05:27:28.849Z,20.33
2023-02-11T05:29:55.296Z,22.05
2023-02-11T05:32:21.711Z,18.88
2023-02-11T05:34:48.129Z,17.90
2023-02-11T05:37:14.903Z,24.75
2023-02-11T05:39:41.318Z,17.85
2023-02-11T05:42:07.706Z,20.38
2023-02-11T05:44:34.166Z,16.70
2023-02-11T05:47:00.618Z,24.83
2023-02-11T05:49:26.958Z,20.02
2023-02-11T05:51:53.317Z,23.48
2023-02-11T05:54:19.758Z,24.98
2023-02-11T05:56:46.120Z,26.98
2023-02-11T05:59:14.888Z,19.60
2023-02-11T06:01:41.463Z,23.50
2023-02-11T06:04:07.882Z,17.33
2023-02-11T06:06:34.260Z,21.45
2023-02-11T06:09:00.610Z,24.77
2023-02-11T06:11:27.003Z,23.97
2023-02-11T06:13:53.371Z,21.17
2023-02-11T06:16:19.792Z,21.00
2023-02-11T06:18:46.280Z,22.92
2023-02-11T06:21:12.937Z,21.30
2023-02-11T06:23:39.391Z,19.50
2023-02-11T06:26:08.787Z,18.40
2023-02-11T06:28:36.000Z,19.55
2023-02-11T06:31:06.940Z,23.98
2023-02-11T06:33:34.991Z,16.92
2023-02-11T06:36:02.013Z,19.37
2023-02-11T06:38:28.399Z,19.77
2023-02-11T06:40:54.866Z,19.45
2023-02-11T06:43:21.238Z,26.40
2023-02-11T06:45:54.155Z,18.13
2023-02-11T06:48:20.553Z,23.97
2023-02-11T06:50:46.988Z,20.20
2023-02-11T06:53:13.657Z,19.27
2023-02-11T06:55:40.370Z,21.50
2023-02-11T06:58:06.731Z,20.75
2023-02-11T07:00:33.141Z,18.90
2023-02-11T07:02:59.686Z,24.98
2023-02-11T07:05:26.159Z,21.27
2023-02-11T07:07:52.559Z,21.85
2023-02-11T07:10:19.128Z,18.58
2023-02-11T07:12:45.587Z,19.83
2023-02-11T07:15:12.065Z,26.92
2023-02-11T07:17:38.516Z,23.80
2023-02-11T07:20:05.369Z,24.10
2023-02-11T07:22:31.830Z,21.58
2023-02-11T07:24:58.198Z,23.20
2023-02-11T07:27:24.661Z,19.85
2023-02-11T07:29:51.013Z,21.88
2023-02-11T07:32:17.534Z,21.55
2023-02-11T07:34:44.009Z,22.05
2023-02-11T07:37:10.926Z,23.87
2023-02-11T07:39:37.276Z,20.67
2023-02-11T07:42:04.224Z,25.65
2023-02-11T07:44:30.848Z,20.77
2023-02-11T07:46:57.240Z,25.75
2023-02-11T07:49:23.617Z,21.93
2023-02-11T07:51:51.347Z,24.23
2023-02-11T07:54:18.164Z,24.63
2023-02-11T07:56:44.733Z,28.20
2023-02-11T07:59:11.570Z,26.20
2023-02-11T08:01:37.957Z,27.33
2023-02-11T08:04:04.666Z,27.23
2023-02-11T08:06:34.294Z,26.67
2023-02-11T08:09:06.791Z,23.73
2023-02-11T08:11:33.219Z,22.92
2023-02-11T08:13:59.631Z,23.13
2023-02-11T08:16:34.454Z,26.67
2023-02-11T08:19:04.092Z,22.23
2023-02-11T08:21:30.607Z,22.70
2023-02-11T08:23:57.503Z,22.63
2023-02-11T08:26:29.841Z,20.90
2023-02-11T08:28:56.944Z,22.25
2023-02-11T08:31:43.971Z,22.77
2023-02-11T08:34:11.897Z,28.75
2023-02-11T08:36:39.610Z,25.20
2023-02-11T08:39:19.161Z,24.60
2023-02-11T08:41:51.566Z,21.08
2023-02-11T08:44:19.663Z,20.13
2023-02-11T08:46:46.467Z,18.85
2023-02-11T08:49:12.897Z,21.75
2023-02-11T08:51:39.756Z,22.07
2023-02-11T08:54:09.487Z,20.65
2023-02-11T08:56:36.780Z,20.35
2023-02-11T08:59:03.789Z,22.50
2023-02-11T09:01:31.515Z,19.33
2023-02-11T09:03:58.906Z,23.17
2023-02-11T09:06:26.476Z,26.23
2023-02-11T09:08:54.778Z,20.48
2023-02-11T09:11:26.977Z,23.35
2023-02-11T09:13:54.495Z,24.50
2023-02-11T09:16:27.366Z,21.13
2023-02-11T09:18:57.056Z,21.08
2023-02-11T09:21:23.511Z,22.63
2023-02-11T09:23:49.977Z,20.90
2023-02-11T09:26:19.993Z,19.67
2023-02-11T09:28:47.693Z,24.37
2023-02-11T09:31:20.662Z,20.92
2023-02-11T09:33:49.469Z,20.45
2023-02-11T09:36:22.299Z,26.23
2023-02-11T09:38:48.886Z,20.15
2023-02-11T09:41:24.301Z,19.90
2023-02-11T09:44:00.916Z,21.90
2023-02-11T09:46:33.045Z,19.30
2023-02-11T09:49:00.561Z,16.00
2023-02-11T09:51:40.930Z,18.33
2023-02-11T09:54:21.004Z,20.40
2023-02-11T09:56:47.362Z,16.80
2023-02-11T09:59:17.628Z,17.77
2023-02-11T10:01:48.518Z,18.35
2023-02-11T10:04:34.546Z,17.60
2023-02-11T10:07:21.227Z,19.47
2023-02-11T10:10:21.288Z,20.15
2023-02-11T10:13:01.145Z,16.23
2023-02-11T10:15:38.355Z,17.38
2023-02-11T10:18:16.463Z,18.92
2023-02-11T10:20:59.047Z,20.00
2023-02-11T10:23:31.705Z,15.90
2023-02-11T10:25:59.095Z,15.38
2023-02-11T10:28:35.670Z,17.25
2023-02-11T10:31:05.294Z,16.55
2023-02-11T10:34:03.500Z,14.47
2023-02-11T10:36:33.860Z,14.05
2023-02-11T10:39:02.253Z,17.20
2023-02-11T10:41:36.878Z,14.90
2023-02-11T10:44:07.098Z,17.23
2023-02-11T10:46:37.827Z,13.13
2023-02-11T10:49:04.316Z,15.68
2023-02-11T10:51:35.245Z,18.88
2023-02-11T10:54:04.620Z,15.10
2023-02-11T10:56:34.447Z,14.98
2023-02-11T10:59:40.348Z,13.20
2023-02-11T11:02:25.179Z,13.63
2023-02-11T11:04:57.036Z,19.05
2023-02-11T11:07:29.497Z,15.98
2023-02-11T11:10:00.277Z,13.63
2023-02-11T11:12:36.203Z,15.73
2023-02-11T11:15:16.549Z,13.00
2023-02-11T11:17:43.073Z,14.63
2023-02-11T11:20:32.278Z,16.33
2023-02-11T11:23:17.460Z,13.40
2023-02-11T11:26:03.632Z,13.40
2023-02-11T11:28:36.615Z,12.65
2023-02-11T11:31:03.614Z,12.75
2023-02-11T11:33:34.294Z,10.55
2023-02-11T11:36:06.513Z,12.25
2023-02-11T11:38:35.262Z,10.10
2023-02-11T11:41:23.136Z,9.73
2023-02-11T11:44:08.392Z,13.40
2023-02-11T11:46:39.097Z,11.55
2023-02-11T11:49:26.667Z,10.43
2023-02-11T11:52:18.047Z,9.20
2023-02-11T11:54:50.233Z,8.45
2023-02-11T11:57:21.986Z,10.25
2023-02-11T11:59:48.414Z,10.10
2023-02-11T12:02:52.437Z,10.73
2023-02-11T12:05:53.430Z,7.17
2023-02-11T12:08:23.183Z,8.77
2023-02-11T12:11:15.315Z,9.52
2023-02-11T12:13:53.575Z,8.32
2023-02-11T12:16:19.975Z,8.93
2023-02-11T12:19:13.969Z,8.27
2023-02-11T12:22:18.320Z,7.80
2023-02-11T12:24:47.738Z,8.68
2023-02-11T12:27:22.095Z,7.88
2023-02-11T12:30:14.371Z,10.18
2023-02-11T12:33:11.650Z,6.17
2023-02-11T12:36:02.309Z,8.70
2023-02-11T12:38:49.297Z,6.82
2023-02-11T12:42:08.569Z,10.52
2023-02-11T12:44:50.875Z,6.72
2023-02-11T12:47:23.260Z,5.33
2023-02-11T12:50:28.739Z,7.97
2023-02-11T12:53:11.816Z,5.75
2023-02-11T12:55:44.838Z,7.93
2023-02-11T12:58:18.987Z,9.65
2023-02-11T13:00:55.409Z,7.37
2023-02-11T13:03:27.224Z,6.30
2023-02-11T13:06:05.396Z,9.75
2023-02-11T13:08:48.424Z,8.95
2023-02-11T13:11:26.074Z,9.68
2023-02-11T13:14:04.472Z,7.53
2023-02-11T13:16:48.784Z,8.35
2023-02-11T13:19:34.766Z,7.35
2023-02-11T13:22:25.865Z,9.05
2023-02-11T13:25:07.272Z,6.55
2023-02-11T13:28:20.810Z,6.77
2023-02-11T13:30:52.402Z,6.65
2023-02-11T13:33:31.719Z,8.82
2023-02-11T13:35:58.027Z,6.15
2023-02-11T13:38:27.507Z,7.53
2023-02-11T13:41:14.412Z,6.50
2023-02-11T13:43:41.128Z,7.60
2023-02-11T13:46:15.543Z,6.47
2023-02-11T13:48:54.092Z,7.15
2023-02-11T13:51:35.135Z,8.35
2023-02-11T13:54:02.437Z,6.90
2023-02-11T13:56:37.988Z,4.93
2023-02-11T13:59:06.988Z,6.03
2023-02-11T14:02:17.779Z,5.90
2023-02-11T14:05:24.811Z,6.88
2023-02-11T14:08:28.078Z,6.83
2023-02-11T14:11:01.684Z,5.47
2023-02-11T14:13:30.734Z,7.70
2023-02-11T14:16:25.432Z,7.45
2023-02-11T14:19:02.468Z,7.05
2023-02-11T14:21:32.389Z,6.40
2023-02-11T14:24:01.775Z,7.60
2023-02-11T14:26:51.926Z,7.82
2023-02-11T14:29:28.725Z,8.90
2023-02-11T14:32:18.714Z,6.57
2023-02-11T14:34:57.212Z,6.53
2023-02-11T14:38:08.100Z,11.80
2023-02-11T14:40:56.772Z,7.20
2023-02-11T14:43:33.055Z,6.70
2023-02-11T14:46:01.280Z,6.07
2023-02-11T14:48:31.650Z,6.80
2023-02-11T14:51:03.038Z,5.88
2023-02-11T14:53:33.174Z,7.00
2023-02-11T14:55:59.685Z,5.95
2023-02-11T14:58:31.685Z,5.70
2023-02-11T15:01:01.311Z,9.00
2023-02-11T15:03:29.048Z,7.13
2023-02-11T15:05:58.700Z,7.78
2023-02-11T15:08:26.480Z,13.63
2023-02-11T15:10:55.284Z,58.45
2023-02-11T15:13:27.114Z,21.07
2023-02-11T15:15:57.902Z,18.95
2023-02-11T15:18:31.754Z,9.18
2023-02-11T15:20:58.200Z,9.55
2023-02-11T15:23:29.661Z,14.70
2023-02-11T15:25:56.559Z,7.80
2023-02-11T15:28:29.104Z,5.07
2023-02-11T15:31:17.414Z,7.78
2023-02-11T15:33:43.890Z,5.65
2023-02-11T15:36:12.608Z,6.43
2023-02-11T15:38:40.029Z,6.67
2023-02-11T15:41:07.577Z,8.23
2023-02-11T15:43:48.721Z,8.77
2023-02-11T15:46:18.787Z,7.95
2023-02-11T15:48:49.219Z,9.15
2023-02-11T15:51:25.247Z,9.43
2023-02-11T15:53:58.602Z,8.27
2023-02-11T15:56:45.581Z,6.10
2023-02-11T15:59:17.215Z,8.23
2023-02-11T16:01:45.538Z,10.45
2023-02-11T16:04:24.414Z,10.03
2023-02-11T16:06:51.395Z,5.32
2023-02-11T16:09:31.800Z,9.43
2023-02-11T16:12:03.137Z,9.50
2023-02-11T16:14:29.587Z,6.97
2023-02-11T16:17:04.122Z,7.63
2023-02-11T16:19:32.582Z,9.38
2023-02-11T16:22:02.489Z,9.68
2023-02-11T16:24:33.004Z,9.23
2023-02-11T16:27:06.859Z,8.05
2023-02-11T16:29:36.516Z,7.23
2023-02-11T16:32:08.440Z,7.93
2023-02-11T16:34:35.089Z,5.93
2023-02-11T16:37:04.747Z,9.60
2023-02-11T16:39:31.210Z,8.15
2023-02-11T16:41:58.274Z,8.57
2023-02-11T16:44:24.846Z,10.43
2023-02-11T16:46:52.762Z,7.28
2023-02-11T16:49:32.611Z,11.48
2023-02-11T16:52:01.814Z,8.07
2023-02-11T16:54:29.602Z,9.60
2023-02-11T16:56:56.874Z,6.28
2023-02-11T16:59:23.703Z,9.13
2023-02-11T17:01:51.941Z,7.30
2023-02-11T17:04:25.966Z,7.22
2023-02-11T17:06:52.480Z,6.33
2023-02-11T17:09:24.437Z,6.75
2023-02-11T17:11:51.592Z,10.48
2023-02-11T17:14:19.242Z,6.80
2023-02-11T17:16:47.770Z,7.03
2023-02-11T17:19:17.221Z,10.10
2023-02-11T17:21:45.149Z,8.10
2023-02-11T17:24:14.294Z,9.63
2023-02-11T17:26:41.484Z,7.60
2023-02-11T17:29:09.869Z,7.38
2023-02-11T17:31:36.632Z,7.80
2023-02-11T17:34:03.518Z,7.15
2023-02-11T17:36:33.297Z,7.82
2023-02-11T17:39:01.158Z,7.22
2023-02-11T17:41:27.876Z,8.50
2023-02-11T17:43:57.587Z,7.53
2023-02-11T17:46:24.406Z,7.82
2023-02-11T17:48:52.759Z,7.38
2023-02-11T17:51:28.433Z,8.68
2023-02-11T17:53:57.764Z,5.65
2023-02-11T17:56:24.836Z,7.33
2023-02-11T17:58:52.953Z,7.80
2023-02-11T18:01:20.021Z,7.95
2023-02-11T18:03:46.444Z,10.30
2023-02-11T18:06:12.843Z,10.35
2023-02-11T18:08:39.229Z,8.53
2023-02-11T18:11:09.969Z,7.82
2023-02-11T18:13:36.373Z,7.80
2023-02-11T18:16:04.245Z,9.13
2023-02-11T18:18:31.540Z,12.63
2023-02-11T18:20:59.529Z,11.53
2023-02-11T18:23:26.490Z,18.08
2023-02-11T18:25:53.506Z,35.35
2023-02-11T18:28:20.266Z,17.52
2023-02-11T18:30:46.729Z,13.60
2023-02-11T18:33:14.429Z,10.80
2023-02-11T18:35:42.119Z,10.48
2023-02-11T18:38:09.768Z,13.55
2023-02-11T18:40:39.799Z,19.73
2023-02-11T18:43:06.806Z,14.10
2023-02-11T18:45:33.517Z,12.20
2023-02-11T18:48:03.483Z,10.07
2023-02-11T18:50:30.120Z,12.43
2023-02-11T18:52:56.621Z,10.70
2023-02-11T18:55:25.717Z,10.77
2023-02-11T18:57:52.994Z,10.93
2023-02-11T19:00:21.352Z,13.38
2023-02-11T19:02:47.711Z,8.73
2023-02-11T19:05:14.275Z,14.35
2023-02-11T19:07:41.703Z,11.40
2023-02-11T19:10:08.805Z,10.80
2023-02-11T19:12:35.204Z,11.73
2023-02-11T19:15:01.661Z,10.90
2023-02-11T19:17:28.069Z,12.13
2023-02-11T19:19:54.422Z,12.80
2023-02-11T19:22:20.911Z,11.67
2023-02-11T19:24:47.381Z,11.13
2023-02-11T19:27:13.784Z,9.23
2023-02-11T19:29:40.242Z,9.60
2023-02-11T19:32:06.948Z,9.15
2023-02-11T19:34:40.914Z,11.13
2023-02-11T19:37:12.669Z,7.97
2023-02-11T19:39:40.514Z,11.98
2023-02-11T19:42:07.237Z,11.73
2023-02-11T19:44:33.706Z,14.77
2023-02-11T19:47:00.230Z,9.73
2023-02-11T19:49:26.810Z,11.88
2023-02-11T19:51:57.269Z,10.35
2023-02-11T19:54:26.441Z,7.65
2023-02-11T19:56:53.594Z,10.77
2023-02-11T19:59:20.404Z,9.63
2023-02-11T20:01:48.875Z,11.45
2023-02-11T20:04:16.841Z,10.48
2023-02-11T20:06:43.486Z,13.55
2023-02-11T20:09:13.459Z,9.73
2023-02-11T20:11:40.914Z,14.23
2023-02-11T20:14:08.342Z,10.57
2023-02-11T20:16:47.705Z,12.68
2023-02-11T20:19:21.236Z,11.50
2023-02-11T20:21:50.760Z,14.57
2023-02-11T20:24:18.565Z,13.77
2023-02-11T20:26:47.986Z,10.85
2023-02-11T20:29:18.338Z,11.20
2023-02-11T20:31:45.543Z,11.30
2023-02-11T20:34:12.600Z,11.93
2023-02-11T20:36:40.388Z,12.30
2023-02-11T20:39:07.536Z,11.88
2023-02-11T20:41:36.512Z,12.18
2023-02-11T20:44:05.691Z,12.75
2023-02-11T20:46:33.876Z,11.50
2023-02-11T20:49:01.300Z,11.73
2023-02-11T20:51:31.032Z,10.48
2023-02-11T20:53:58.470Z,14.30
2023-02-11T20:56:30.038Z,12.30
2023-02-11T20:58:58.024Z,11.65
2023-02-11T21:01:35.710Z,17.13
2023-02-11T21:04:03.866Z,13.25
2023-02-11T21:06:36.613Z,11.70
2023-02-11T21:09:05.259Z,12.27
2023-02-11T21:11:31.741Z,14.13
2023-02-11T21:13:58.579Z,9.43
2023-02-11T21:16:25.717Z,10.05
2023-02-11T21:18:52.616Z,10.90
2023-02-11T21:21:19.853Z,11.95
2023-02-11T21:23:46.386Z,13.38
2023-02-11T21:26:13.338Z,13.67
2023-02-11T21:28:43.308Z,13.02
2023-02-11T21:31:10.074Z,13.07
2023-02-11T21:33:36.675Z,11.80
2023-02-11T21:36:04.665Z,11.93
2023-02-11T21:38:33.545Z,10.23
2023-02-11T21:41:06.785Z,11.32
2023-02-11T21:43:33.588Z,11.95
2023-02-11T21:46:00.659Z,10.27
2023-02-11T21:48:27.192Z,12.45
2023-02-11T21:50:53.770Z,14.33
2023-02-11T21:53:20.389Z,13.85
2023-02-11T21:55:46.863Z,11.82
2023-02-11T21:58:14.046Z,9.10
2023-02-11T22:00:40.569Z,9.77
2023-02-11T22:03:07.000Z,13.63
2023-02-11T22:05:33.409Z,13.07
2023-02-11T22:07:59.846Z,14.43
2023-02-11T22:10:26.316Z,11.38
2023-02-11T22:12:52.743Z,15.45
2023-02-11T22:15:19.674Z,10.73
2023-02-11T22:17:46.111Z,13.38
2023-02-11T22:20:12.820Z,12.25
2023-02-11T22:22:39.244Z,12.23
2023-02-11T22:25:06.143Z,9.82
2023-02-11T22:27:32.593Z,12.03
2023-02-11T22:29:59.042Z,10.57
2023-02-11T22:32:25.474Z,13.00
2023-02-11T22:34:53.407Z,10.65
2023-02-11T22:37:20.239Z,11.10
2023-02-11T22:39:46.743Z,13.73
2023-02-11T22:42:13.099Z,12.70
2023-02-11T22:44:39.512Z,13.88
2023-02-11T22:47:06.021Z,15.13
2023-02-11T22:49:33.193Z,13.95
2023-02-11T22:52:00.304Z,11.13
2023-02-11T22:54:27.234Z,13.05
2023-02-11T22:56:53.729Z,15.93
2023-02-11T22:59:21.082Z,11.38
2023-02-11T23:01:47.870Z,13.85
2023-02-11T23:04:17.042Z,13.80
2023-02-11T23:06:43.810Z,12.00
2023-02-11T23:09:12.503Z,12.88
2023-02-11T23:11:39.708Z,13.60
2023-02-11T23:14:08.523Z,12.45
2023-02-11T23:16:35.424Z,12.67
2023-02-11T23:19:08.770Z,14.55
2023-02-11T23:21:37.768Z,15.02
2023-02-11T23:24:08.376Z,13.27
2023-02-11T23:26:35.361Z,14.05
2023-02-11T23:29:01.959Z,14.43
2023-02-11T23:31:33.120Z,12.30
2023-02-11T23:34:01.076Z,14.45
2023-02-11T23:36:28.163Z,14.05
2023-02-11T23:38:54.708Z,13.95
2023-02-11T23:41:21.920Z,15.87
2023-02-11T23:43:50.746Z,13.60
2023-02-11T23:46:17.604Z,15.77
2023-02-11T23:48:44.362Z,13.38
2023-02-11T23:51:11.109Z,13.70
2023-02-11T23:53:38.805Z,15.70
2023-02-11T23:56:10.662Z,14.70
2023-02-11T23:58:37.381Z,17.15
